Asbury Park, New Jersey
Current Conditions -  °F | °C
As of 2:55 AM on Sunday 26 Oct 2014 (Local Time) from KBLM Reporting Station
Overcast Overcast  
Wind Chill: 14°   Ceiling: 8000
Heat Index: 14°   Visibility: 10mi
Dew Point:   Wind: 7mph
Humidity: 55%   Direction: 260°W
Pressure: 29.58"   Gusts: NA
Location:  40.22°N, 74.01°W
Report Text: KBLM 260655Z AUTO 26006KT 10SM OVC080 14/05 A2958 RMK AO1
Loading
Personal Weather Stations






























Interactive Weather Map
Tropical Storm Tracking
New forecast layout! Learn more

10-Day Weather Forecast

Advertisements
Track Severe Weather on mobile